Race Results for
Bonelli Park
San Dimas, CA
(Event Information)
Cross Country on 03/09/2008

Note: Ranking points are NOT upgrade points. An explanation of ranking points can be found here.


Men - SP - Junior - 1-14

 Place Points NameCity, StateTime USAC #BibTeam
1540.00Nicholas Tarrant   La Verne, CA0:49:21.40 271064  562 SC VELO
2565.00Quint Berkemeier   Lake Arrowhead, CA0:52:51.33 240136  466 
3590.00jordan hirschmann   1:40:32.79 272419  518 SHO-SIR/SO

Men - SP - Senior - 1-34

 Place Points NameCity, StateTime USAC #BibTeam
1Luke Werkhoven   Santa Barbara, CA1:44:22.09 199565  541 PLATINUM
2Lucas Crawford   Thousand Oaks, CA1:58:21.37 261625  529 WESTLAKE C

Men - SP - Senior

 Place Points NameCity, StateTime USAC #BibTeam
1540.00John Schmidt   Huntington Beach, CA1:37:11.45 222526  554 SHO-AIR
2ALEXANDER DONOGHUE   1:38:54.00  515 CP TRI
3RUSS POPE   1:43:39.00  571 SHO-AIR/SO
4565.00Jeff Johnson   Santa Maria, CA1:48:12.90 243727  516 PEDAL POWE
5EDWARD EWERT   1:57:14.03  566 COATES
6CALVIN LE FEBVRE   2:02:25.05  575 CYCOPATH
7JAKE BOAARD   2:16:09.72  511 JERRY HILL

Men - SP - Junior - 15-16

 Place Points NameCity, StateTime USAC #BibTeam
1540.00David Tarrant   La Verne, CA1:39:45.36 271063  563 SC VELO
2556.67Jacob Johnson   Carlsbad, CA1:55:55.96 260944  443 SHO-AIR/SO
3573.33Matthew Thome   Costa Mesa Ca2:03:11.79 250200  427 BACKBONE
4ANDREW BURDE   2:24:21.63  455 

Men - SP - Junior - 17-18

 Place Points NameCity, StateTime USAC #BibTeam
1SAMUEL HIRSCHMANN   1:49:59.57  517 SHO-SIR/SO
2Michael Suggs   Irvine, CA1:56:04.20 263280  532 

Men - SP - Senior - 19-24

 Place Points NameCity, StateTime USAC #BibTeam
1PETER NAGY   1:43:51.71  564 TREK SUPER
2VU LE   1:44:42.77  525 TEMPLE CIT
3MARK TOMKINSON   1:48:19.15  414 DIZ

Men - SP - Senior - 25-29

 Place Points NameCity, StateTime USAC #BibTeam
1540.00Adam Poytress   Goleta, CA1:32:59.46 260239  435 PLATINUM
2RYAN HERNANDEZ   1:33:51.78  526 SC VELO
3MATT VAUGHAN   1:39:23.83  425 
4RYAN MEYER   1:39:57.66  411 
5558.18Andrew Choi   Upland, CA1:41:25.98 274348  454 
6ADAM BURNDUM   1:42:08.23  472 SHO-AIR/SO
7MICHAEL CRUZ   1:42:09.24  485 SC VELO
8LEONARD LUCAS   1:47:54.53  565 
9576.36Roel Perez   Fullerton1:52:26.23 245657  412 SC VELO
10SEAN ROBMAN   1:58:35.14  510 
11ABELARDO NAVA   2:04:40.37  544 BACKBONE
12JOHN BARRETT   2:11:04.70  553 
DNFGRAHAM MILLER   DNF  437 COATES

Men - SP - Master - 30-34

 Place Points NameCity, StateTime USAC #BibTeam
1540.00Chase Schoen   Thousand Oaks, CA1:27:58.33 250408  429 PLATINUM
2544.55Robert Wilcher   Santa Barbara, CA1:31:27.12 237582  558 CHICKEN RA
3549.09Byron Smith   Los Angeles, CA1:35:17.78 112495  506 KAHALA LAG
4553.64Jacob Ketterer   Costa Mesa, CA1:36:43.32 82736  439 
5558.18Zach Thorp   Redlands, CA1:39:13.35 93335  572 TM REDLAND
6562.73Gary Locken   Fresno, CA1:42:44.18 227472  409 SPATDOG
7567.27Brian Bermudes   Santa Barbara, CA1:42:53.13 239183  462 CHICKEN RA
8571.82Julian Villa   Moorpark, CA1:43:16.75 234378  487 SC VELO
9576.36Seth Sproul   La Jolla, CA1:46:08.83 263285  567 
10580.91Nick Gualtieri   Montrose, CA1:57:07.69 182377  551 SC VELO
11MAURICIO ZAMORANO   2:28:40.53  560 
12DAVID TAYLOR   2:32:59.08  559 
DNFChris Messina   Rancho Santa Margarita, CADNF 239423  574 FLOW MG

Men - SP - Master - 35-39

 Place Points NameCity, StateTime USAC #BibTeam
1526.64Roger Wotton   Redondo Beach, CA1:29:36.45 38990  424 CYNERGY CY
2TREVOR DUNN   1:31:26.67  522 METALMTN
3534.56Eric Woods   Centennial, CO1:32:32.08 152275  423 SHO-AIR
4JOHN UMALE   1:38:38.14  416 SABAK
5ROBERT ATKINS   1:39:48.17  573 SMITHS CYC
6DEAN LONG   1:40:08.69  489 JENSON USA
7550.40Omar Estrada   Buena Park, CA1:41:07.82 199503  568 ENCORE
8554.36Dean Bricker   Palm Desert, CA1:41:20.13 112021  458 
9RICHARD CONTRERAS   1:41:22.28  456 
10562.28Jason Butler   San Diego, CA1:42:08.58 240062  475 SDBC
11GEORGE UMALE   1:42:38.60  415 SABAK PHIL
12570.20Paul Donohoe   Santa Barbara, CA1:45:21.36 260267  453 CHICKEN RA
13574.16Chris DuBurg   Los Gatos, CA1:47:59.98 232893  404 SPATDOG
14578.12Norberto Oropez   Alhambra, CA1:48:18.11 272396  436 PASADENA A
15582.08Michael Henderson   Valley Center, CA1:51:17.74 42359  445 SNAP-ON-TO
16ROD CHRISTIANSEN   2:05:03.32  457 SURF CITY
17590.00Patrick Toole   Tujunga, CA2:38:48.29 35749  480 UNITY SPOR
DNFChristopher Bautista   Glendora, CADNF 92585  403 SC VELO
DNFVINCE PERRINE   DNF  417 
DNFEddie Ramirez   Eagle Rock, CADNF 168960  503 PAA MERRIL

Men - SP - Master - 35-99

 Place Points NameCity, StateTime USAC #BibTeam
1MARK SALMON   1:50:50.86  433 
2552.50James Jellison   Santa Barbara, CA1:51:56.69 200275  514 CHICKEN RA
3STEVE BATES   1:53:18.31  505 VELOPRO
4ESTEBAN GASTINELL   2:17:13.21  452 5150 RACIN
5PETER FIERRO   2:32:40.95  407 
DNFMike Abbott   Santa Barbara, CADNF 252058  401 CHICKEN RA
DNFTERRY GARRISON   DNF  540 

Men - SP - Master - 40-44

 Place Points NameCity, StateTime USAC #BibTeam
1540.00Brian Dickey   Simi Valley, CA1:25:32.68 275961  492 COLAVITA
2MICHAEL RASCHKE   1:27:53.53  519 METAL MTN
3543.85Craig Donkin   Tarzana, CA1:29:38.36 270308  420 
4545.77Frank Pinto   Monterey, CA1:33:08.18 227583  418 JOSELYNS
5547.69Alejandro Medina   La Mirada, CA1:35:10.57 260098  500 
6549.62Michael Wilson   Orange, CA1:35:30.06 114946  474 
7551.54Jonathan Luckett   Carpinteria, CA1:36:04.47 193820  561 PLATINUM
8CHAZ MACLAUGHLIN   1:36:35.84  438 UNATTACHED
9555.38Steve Kelley   Salinas, CA1:36:46.25 204376  441 JOSELYNS
10557.31mike hinze   Whittier, CA1:37:43.76 260929  410 LA HABRA C
11DARIN TANIKAWA   1:37:44.30  531 
12KENNETH CLIFTON   1:38:30.17  502 
13563.08Randy Rush   Ramona, CA1:40:09.11 205171  432 BACKBONE
14565.00John Reveles   Montrose , CA1:40:34.96 223036  469 PLATINUM
15566.92Tom Andrews   Monrovia, CA1:40:59.44 1757  459 
16568.85Vincent Gest   Thousand Oaks, CA1:41:01.64 170863  491 COLAVITA
17CHRIS DRINKWARD   1:41:39.35  542 CYCOPATH
18572.69Philip Friden   Santa Barbara, CA1:42:14.00 239238  448 CHICKEN RA
19574.62Kevin Bailey   Pinon Hills, CA1:46:40.76 144294  464 
20STEVE MCCLELLAND   1:46:53.21  499 CLIMBMAX
21MILES HELFRICH   1:47:33.40  444 
22580.38Bill Cuttler   Santa Barbara, CA1:48:20.09 188050  527 CHICKEN RA
23582.31Tim Bess   Rancho Cucamonga, CA1:48:40.47 170882  530 COLAVITA
24THOMAS HAMILTON   1:50:51.21  552 
25586.15Paul Hauck   Canyon Country, CA1:52:22.22 53255  534 SANTA CLAR
26ALFREDO CABRERA   1:57:31.19  536 BICYCLE JO
27JOHN ROBINSON   2:05:47.27  481 SOLIDSKATE
DNFMARK JOHNSON   DNF  440 SHO-AIR/SO
DNFCurtis Bayer   Rim Forest, CADNF 157074  460 DONS BIKE

Men - SP - Master - 45-49

 Place Points NameCity, StateTime USAC #BibTeam
1RANDY MARTIN   1:27:18.52  556 SIMPLE GRE
2495.65R. Scott Tedro   Santa Ana, CA1:30:53.21 263040  426 SHO-AIR
3500.89Richard Kim   Anaheim Hills, CA1:31:37.45 246854  408 SHO-AIR/SO
4YOSHIMI TSUJIO   1:34:36.83  528 
5511.38David Gibson   Anaheim, CA1:34:56.56 77451  543 TEM VELOCI
6ROBERT RODGERS   1:36:27.64  570 SHO-AIR/SO
7VINCENT SABOTIN   1:39:34.35  495 IDYLLWILD
8527.10Thomas Gabehart   Poway, CA1:39:55.59 40110  405 CAL COAST
9532.34Hugo Martin   Santa Clarita, CA1:40:22.12 258127  557 SANTA CLAR
10FRANCISCO VIDAL   1:40:24.72  507 
11DAVID CULBERTSON   1:41:00.47  512 
12548.07Steve Boelter   Goleta, CA1:43:35.50 177625  547 PLATINUM
13553.31Rick Grebner   Mission Viejo, CA1:44:34.03 190685  446 SHO-AIR/SO
14558.55Rick Lane   Fullerton, CA1:44:34.45 199508  533 TEAM U.P.
15563.79Daniel Pino   Lawndale, CA1:46:19.45 184841  513 SMITHS CYC
16569.03Roland Dechaine   San Diego, CA1:50:14.10 170667  539 
17574.28Marshall Brown   Tehachapi, CA2:01:22.14 181622  546 SIMPLY FIT
18579.52Shannon Hirsch   Santa Monica, CA2:07:11.08 121890  494 BIKEMAN.CO
19STEVEN ROW   2:12:31.27  523 
20590.00Thomas Blaine   Highland, CA2:17:38.30 40752  520 TM JOSE OL
DNFJONATHAN HAYWARD   DNF  406 PMBC
DNF Scott Amiss   Los Angeles, CADNF 259105  465 

Men - SP - Master - 50-54

 Place Points NameCity, StateTime USAC #BibTeam
1540.00Michael Hines   Escondido, CA1:25:51.69 125061  86 TEAM RANCH
1542.38John Holthaus   Trabuco Canyon, CA1:34:36.43 218002  473 SHO-AIR/SO
2544.76Joe Gallal   Fullerton, CA1:27:23.48 153889  112 VELOCITY
2547.14Donald Jackson   Mission Viejo, CA1:41:26.67 216645  501 SHO-AIR/SO
3549.52Dale Raymond   Corona1:30:48.29 148853  117 PAA
3551.90Shigy Suzuki   Carpinteria, CA1:41:33.32 254512  496 PLATINUM
4554.29Dean Swank   Crestline, CA1:31:48.43 215598  12 BEAR VALLE
4BYRON BECK   1:42:14.43  402 PLATINUM
5561.43Mark Luke   Goleta, CA1:37:54.19 131303  35 PLATINUM
5559.05Douglas House   Dove Canyon, CA1:43:18.22 224106  442 SHO-AIR/SO
6ARMANDO DE ARMAS   1:41:57.21  48 
6FRANK BAKER   1:44:03.03  549 
7568.57Kim McDaniel   Santa Barbara, CA1:44:31.65 103139  508 CHICKEN RA
8570.95Steve Bertrand   Carpinteria, CA1:45:58.31 196819  463 PLATINUM
9573.33Gary Stewart   Oak Hills, CA1:49:20.16 133607  493 ESI GRIPS
10575.71Chuck Filkins   Simi Valley, CA1:49:55.85 214209  450 TEAM APE
11578.10John Watson   Covina, CA1:51:43.22 165959  478 COATES
12580.48Jeff Kinney   San Diego, CA1:51:44.13 115650  468 CAL COAST
13582.86John Goodman   Santa Barbara, CA1:56:40.82 203221  447 PLATINUM
14585.24Gary Bojorquez   Saugus, CA2:00:43.59 144193  497 SANTA CLAR
15TIM ZONGKER   2:10:37.63  421 SHO-AIR/SO
16590.00Peter Eaton   Ladera Ranch, CA2:14:24.52 220310  449 SHO-AIR/SO
DNFJames Dover   Temecula, CADNF 153783  87 CYCOPATH
DNFSteve Silva   Goleta, CADNF 32669  61 PLATINUM
DNFPhil Beckman   Lake Arrowhead, CADNF 3125  461 DONS BIKE

Men - SP - Master - 55-59

 Place Points NameCity, StateTime USAC #BibTeam
1GREG ROSEDAHL   1:39:14.61  881 
2547.14Dan Munz   Lake Hughes, CA1:40:33.99 233445  538 SHO-AIR/SO
3554.29Tod Hostetler   North Hills, CA1:46:28.93 221581  504 TEAM APE
4561.43Chris Stapleton   Saugus, CA1:50:10.23 129752  467 SANTA CL V
5568.57Philippe Minniti   Canyon Country, CA1:58:34.02 183822  490 TEAM APE
6STEVE ENGELGAU   2:05:06.11  537 BEAR VALLE
7582.86Roger Jorgensen   Chatsworth, CA2:06:46.17 249449  484 BIKEMAN.CO
8BOB BRITTON   2:22:12.87  509 
DNFMike Roberts   Ojai, CADNF 229940  434 PLATINUM

Men - SP - Master - 60-64

 Place Points NameCity, StateTime USAC #BibTeam
1STU ROBERTSON   1:55:00.41  550 TM OLD FAR
2556.67Roger Sexton   Valencia, CA2:03:07.72 142061  488 TEAM APE
3573.33Bruce Ramsey   Valencia, CA2:06:43.22 29106  498 
4JOHN CLEMMITT   2:46:46.95  555 CLUB ENDUR
DNFRoland Russ   Chatsworth, CADNF 210997  486 BIKEMON

Men - SP - Master - 65-99

 Place Points NameCity, StateTime USAC #BibTeam
1540.00Gary Foster   Anza, CA1:57:34.86 213442  471 CYCOPATH
2556.67David Martin   Claremont, CA2:19:57.66 170481  476 COATES
3573.33Doris Matyasovich   Orange, CA2:21:06.94 22970  419 
4RICHARD GORDON   2:57:12.18  545 

Men - SM - Senior

 Place Points NameCity, StateTime USAC #BibTeam
1540.00Mark Santurbane   San Luis Obispo, CA1:54:30.92 229325  21 CA GIANT B
2542.94Scott McKelvey   Cathedral City, CA2:00:01.18 93336  38 PALM SPRIN
3545.88Jason Siegle   Solvang, CA2:01:17.62 193522  20 BEAR VALLE
4548.82Chris Burnham   Seaside, CA2:03:08.89 144657  55 BURNHAMCOA
5551.76Greg Cohen   Rancho Santa Margarita, CA2:04:08.34 122563  YDR
6554.71Mike Oceguera   Azusa, CA2:04:17.15 183840  29 SC VELO
7557.65Daniel Perez   Corona, CA2:04:37.41 238167  145 JENSON USA
8560.59Ely Woody   Apple Valley, CA2:05:45.65 99090  11 VICTORVILL
9563.53Ryan Clark   Laguna Hills, CA2:05:52.64 242802  50 CYNERGY
10566.47Sergio Garcia   Upland, CA2:06:13.25 260315  147 SC VELO
11569.41Lyle Warner   Altadena, CA2:08:00.11 198500  165 HELENS/SUB
12572.35Raymond Caballero   Los Angeles, CA2:08:06.49 163194  142 HELENS/FIS
13575.29John Nobil   La Jolla, CA2:09:24.33 26168  163 BV BIKES
14578.24Alex Boone   Pasadena, CA2:09:33.84 224203  56 HELENS/SUB
15581.18Bert Blanchette   Long Beach, CA2:11:35.58 3886  57 BACKBONE
16584.12Allan Laframboise   Big Bear Lake, CA2:12:50.65 259749  161 DONS BIKES
17587.06Frank Flores   Oxnard, CA2:22:10.08 183798  113 
18590.00Greg Alexander   Vista, CA2:28:31.22 173168  153 CAL COAIT
DNFRomolo Forcino   Oak Hills, CADNF 188303  46 BEAR VALLE
DNFAlexis Seletzky   Los Angeles, CADNF 194792  CYNERGY

Men - PR/SM - Senior

 Place Points NameCity, StateTime USAC #BibTeam
1540.00Brad Stephenson   Aliso Viejo, CA2:04:06.38 107621  15 SHO-AIR
2556.67Dezmin Wilder (1 - PR)   Grass Valley, CA2:07:49.99 225330  100 SOBE CANNO
3573.33Josh Kelley (2 - PR)   Portland, OR2:10:43.37 248579  39 SHO-AIR
4590.00Michael Kent (1 - SM)   Goleta, CA2:13:36.63 18956  59 DEATHSTAR

Men - Cat 1/2/3 - Senior

 Place Points NameCity, StateTime USAC #BibTeam
1Edward Sibby   Temecula, CA1:59:12.55 181614  431 CYCOPATH

Men - EX - Junior - 1-16

 Place Points NameCity, StateTime USAC #BibTeam
1Garrett Garcia   Foothill Ranch, CA1:48:15.13 227141  168 LADERA CYC
2Justin Brewer   Temecula, CA1:52:05.52 261145  104 CYCOPATH

Men - EX - Senior

 Place Points NameCity, StateTime USAC #BibTeam
1540.00Miles Neisser   Laguna Beach, CA2:10:13.87 207644  34 ROCK SOLID
2546.25Coley King   Venice, CA2:10:44.80 19156  167 SMELL THE
3552.50Mark Scheetz   Upland, CA2:19:27.80 245804  22 COATES
4558.75Craig Sisino   Calabasas, CA2:23:09.12 194529  98 SHO-AIR/SO
5GEORGE MUNOZ   2:29:01.07  33 SHO-AIR
6HENRY SZCZYPIORSKI   2:30:59.69  144 CYCOPATH
7577.50Bill Nagler   Indianapolis, IN2:32:08.92 269970  71 COATES
8583.75Brad Cannella   Cambria, CA2:36:50.80 92638  73 SINGLETRAX
9590.00Moises Molina   Mission Viejo, CA2:38:36.85 183955  138 CYCOPATH

Men - EX - Junior - 17-18

 Place Points NameCity, StateTime USAC #BibTeam
1525.00Ian McFarlane   Santa Barbara, CA1:35:17.13 220635  134 PLATINUM
2546.67Zach Patterson   Pinon Hills, CA1:35:29.69 254679  107 BLOCKSHOP
3568.33Kody Adams   Hesperia, CA1:51:01.24 181187  94 VITORVILLE
4MATTS HANSSENS   1:56:13.02  141 

Men - EX - Senior - 19-24

 Place Points NameCity, StateTime USAC #BibTeam
1YOSHIO GARCIA GUERRA   2:13:38.51  164 COATES
2552.50Nick Kintz   Marina, CA2:19:15.43 201996  77 JOSCLYNS
3565.00John Parson   Covington, LA2:20:36.77 236117  162 
4RYAN DUNGEY   2:22:05.15  116 SHO-AIR OA
5590.00Stephane Roch   San Diego, CA2:47:12.09 199861  25 
DNFBobby Langin Jr   Moorpark, CADNF 241629  93 PLATINUM

Men - EX - Senior - 25-29

 Place Points NameCity, StateTime USAC #BibTeam
1WESLEY REUTIMANN   2:02:40.97  64 PAA
2515.00James Koch   Romoland, CA2:08:27.36 89889  126 CYCOPATH
3540.00Everett DuPee   Fallbrook, CA2:14:09.15 242362  124 CYCOPATH
4565.00Ara Movsessian   Glendale, CA2:42:20.95 210630  89 BACKBONE
5590.00Stephen Marshall   Big Bear Lake2:44:11.05 122108  70 BEAR VALLE

Men - EX - Master - 30-34

 Place Points NameCity, StateTime USAC #BibTeam
1420.85Gary Douville   Santa Barbara, CA2:09:09.83 101476  159 PLATINUM
2429.56Jeremy Duerksen   Erie, CO2:10:20.83 10105  101 BLUE SKY V
3JOHN MYLNE   2:10:50.89  31 SHO-AIR
4446.96Daniel Stromborg   Los Angeles, CA2:12:21.69 237464  157 HELENS
5455.67Jonathan Hunter   Ventura, CA2:12:22.07 262354  151 MICHAELS B
6464.37David Sheek   Huntington Beach, CA2:14:15.28 250444  121 OUTSIDEALL
7473.07Eric Christenson   Rancho Santa Margarita, CA2:16:17.35 250477  118 OUTSIDEALL
8481.77Nathan Wood   Seaside, CA2:17:10.39 248406  10 JOSELYNS/B
9490.48Jon Fugitt   Trabuco Canyon, CA2:17:12.12 230915  105 FLOW MG
10499.18Rod Leveque   Upland, CA2:21:18.17 239226  78 JENSON USA
11507.88Daniel Stevenson   Upland, CA2:23:28.34 192009  120 SC VELO
12516.59Brant Hatton   Huntington Beach, CA2:24:42.42 110743  160 KENDA/BACK
13525.29Robert Snyder   San Juan Capistrano, CA2:31:50.32 129745  169 BACKBONE
14533.99Rodrigo Flores   Port Hueneme, CA2:33:00.64 213448  109 TM RESPONS
15AARON GIBSON   2:59:31.86  154 
DNFMARK MUMEA   DNF  125 JENSON USA
DNFHumberto Castro   Anaheim, CADNF 245798  54 JENSON USA

Men - EX - Master - 35-39

 Place Points NameCity, StateTime USAC #BibTeam
1490.00Chuck Ross   Auburn, CA2:04:53.79 30625  23 SHO-AIR
2494.32Todd Booth   Santa Barbara, CA2:07:51.85 4249  PLATINUM
3498.64Matthew Cochran   Thousand Oaks, CA2:09:29.62 85997  114 KONA-FRI
4502.95Timothy Sparks   Moorpark, CA2:11:09.03 250370  SHO-AIR/SO
5507.27David Reid   Laguna Hills, CA2:13:50.43 260171  150 FLOW MG
6511.59Scott Marcoe   San Clemente, CA2:15:18.39 98229  155 
7515.91Dustin Luton   Pasadena, CA2:15:51.14 222631  COATES
8520.23Mario Correa   Chino Hills, CA2:16:53.26 192099  79 SHOR-AIR/S
9524.55Michael Holk   Pacific Palisades, CA2:18:33.13 16524  75 JOSELYNS
10528.86Peter Sproul   Santa Barbara, CA2:18:35.06 33687  16 CHICKEN RA
11533.18Chris Marsiguerra   Seaside, CA2:19:11.73 144195  76 JOSELYNS
12537.50Rene Pulido   Pomona, CA2:23:36.83 240860  26 SC VELO
13541.82Scott Palmer   La Verne, CA2:29:10.79 27133  85 COVINA VAL
14546.14David Lamon   Chatsworth, CA2:32:02.23 186807  149 
15JAVIER REVELES   2:32:24.70  143 
DNFTY OBRIEN   DNF  111 
DNFMark Faulkner   Pacific Grove, CADNF 190171  47 JOSELYNS

Men - EX - Master - 40-44

 Place Points NameCity, StateTime USAC #BibTeam
1513.24Jason Hannon   Santa Ynez, CA2:06:56.29 167360  43 PLATINUM
2517.19Matt Benko   Santa Barbara, CA2:07:51.85 42476  58 CHICKEN RA
3521.13Doug Urbach   West Lake Village, CA2:10:43.43 36238  123 PLATINUM
4525.08Alexander Rouch   Prunedale, CA2:10:54.32 219680  24 JOSELYNS
5529.02Mike Hileman   Henderson, NV2:10:58.58 162082  40 SHO-AIR
6532.97Robert Kmetz   Rancho Santa Margarita, CA2:10:59.85 19419  140 SHO-AIR/SO
7HENRY VALENZUELA   2:12:30.90  14 UNATTACHED
8540.86Sean Smith   Laguna Niguel, CA2:15:09.99 115418  AFP/VELO
9BILL MOSHER   2:17:33.73  92 SHOAIR
10ADAN GUSMAN   2:17:36.28  156 
11552.69Edward Dinger   San Bernardino, CA2:18:13.23 184002  60 TM JOSE OL
12556.64Jeff Lewis   Newbury Park, CA2:19:15.52 21082  133 
13560.58James Cross   Los Angeles, CA2:19:25.60 199358  115 BACKBONE R
14564.53Roger Moore   Santa Barbara, CA2:21:08.02 24953  65 PLATINUM
15568.47David Roth   Boulder, CO2:23:50.11 30683  97 HELENS/SUB
16572.42David Calta   Redondo Beach, CA2:32:10.85 183841  152 AMGEN
17576.36Brendan Shepherd   Los Angeles, CA2:32:37.37 32415  69 
18580.31Wade Arnold   Lakewood, CA2:45:10.88 192502  90 SC VELO
DNFAaron Long   Oakland, CADNF 158083  37 CHICKEN RA
DNFRobert Rich   Manhattan Beach, CADNF 97974  148 CYNERGY CY
DNFDale Niemi   Coto De Caza, CADNF 205689  68 SHO-AIR/SO
DNFLee Bird   La Canada, CADNF 195795  95 PAA/MERRIL

Men - EX - Master - 45-49

 Place Points NameCity, StateTime USAC #BibTeam
1530.80Johnny O'Mara   Laguna Niguel, CA1:58:49.35 50872  30 SHO-AIR
2534.71David Sullivan   Encinitas, CA2:02:07.15 159062  19 BIKE EMPIR
3DERMOT CARROLL   2:03:57.93  127 MICAELS BI
4542.54Ron Takeda   Santa Barbara, CA2:04:21.22 34927  139 PLATINUM
5546.45Todd Stephenson   Aliso Viejo, CA2:05:10.28 164458  17 SHO-AIR
6550.37Johnny Dalton   La Habra Heights, CA2:06:43.08 239463  110 VELOCITY
7BOBBY LANGIN SR   2:10:51.61  36 PLATINUM
8558.19John Biron   Newbury Park, CA2:13:23.36 79727  63 PLATINUM
9562.11Scott Shaw   Covina, CA2:17:56.97 32353  119 COVINA VAL
10566.02Perry Burtch   Grand Terrace, CA2:22:15.08 147739  51 POSSABILIT
11569.94James Leist   Eastvale, CA2:24:47.83 98212  106 
12573.85Steve Herrera   Montebello, CA2:38:59.69 148810  42 COVERALLS
DNFJeff Lambing   San Diego, CADNF 187600  88 

Men - EX - Master - 55-59

 Place Points NameCity, StateTime USAC #BibTeam
1540.00Jon Miller   Newbury Park, CA1:27:30.64 167489  32 SHO-AIR
2565.00Richard Manzella   Santa Monica, CA1:36:19.07 245515  108 HELENS SUB
3590.00Eric Storm   Apple Valley, CA1:44:42.70 82406  18 

Men - EX - Master - 60-64

 Place Points NameCity, StateTime USAC #BibTeam
1540.00Bob Blatner   Brentwood, CA1:34:23.77 128181  53 SHO-AIR
2565.00Stan Ford   Temcula1:38:31.50 12017  CYCOPATH
3590.00David Ortega   San Diego, CA1:43:57.96 86603  137 CAL COAST

Men - EX - Master - 65-99

 Place Points NameCity, StateTime USAC #BibTeam
1Terry Dahl   Santa Barbara, CA1:54:00.75 189437  49 PLATINUM
2Brian Kiniry   Santa Maria, CA2:17:38.80 101576  74 
DNFBuz Brockway   Granada Hills, CADNF 86705  62 TEAM APE

Men - BG - Senior - 1-34

 Place Points NameCity, StateTime USAC #BibTeam
1540.00Dusty Holland   Hesperia, CA0:58:11.89 275234  808 
2KRIS HERNANDEZ   1:04:37.73  863 ANIMAL HOU
3JEREMY YANG   1:04:46.13  815 

Men - BG - Senior - 19-24

 Place Points NameCity, StateTime USAC #BibTeam
1JUSTIN BERGMAN   0:50:08.55  871 SMITH/TROY
2BENJAMIN WEBSTER   0:54:57.49  872 DIAMOND BA
3JOSE GONZALEZ   0:55:08.65  901 
4JEREMY MALDONADO   0:58:24.08  875 
5AUSTIN ALLAN   1:10:44.92  803 

Men - BG - Senior - 25-29

 Place Points NameCity, StateTime USAC #BibTeam
1JOSH OSKINS   0:52:43.63  864 MEYER&REED
2ISRAEL BOCANEGRA   0:54:47.49  902 
3573.33Cheyne McKeever   Huntington Beach , CA1:03:42.30 262304  811 
4JOHN WOOD   1:06:45.25  886 BAJA JUNHE

Men - BG - Master - 30-34

 Place Points NameCity, StateTime USAC #BibTeam
1540.00Andrew Fondacaro   Chula Vista, CA0:50:06.30 192389  805 CVFD CYCLI
2MATT SMITH   0:53:18.69  826 
3STEVE LANG   0:56:01.07  839 TM BAJA JU
4TIM SHEARS   0:56:50.89  825 
5GUILLERMO DELGADILLO   1:04:27.45  874 
6MARCUS AUSTIN   1:11:14.63  802 
DNFjason broussard   Thousand Oaks, CADNF 263609  848 

Men - BG - Master - 35-39

 Place Points NameCity, StateTime USAC #BibTeam
1540.00Mark Woodward   San Clemente, CA0:49:35.19 38931  814 VELOSPT/SH
2JOHN NYGREN   0:53:49.47  834 CHICKEN RA
3549.09Justin Rosen   Santa Ana, CA0:54:20.90 260915  830 SHO-AIR
4RUSS NIEDWICK   0:54:25.25  833 
5558.18Sacha Petancic   Dana Point, CA0:56:45.79 158110  879 
6RAFI ZAIT   1:00:21.14  892 BOMB
7ALEX HERRELL   1:02:33.33  843 
8ALAN TIMM   1:06:03.65  903 
9576.36Timothy Aguayo   La Verne, CA1:06:41.50 214320  804 
10SONNY YALUNG   1:08:38.76  816 SABAK PHIL
11CARLOS AGUIRRE   1:14:20.11  889 
12590.00Robert Kersey   Corona, CA1:23:28.19 248053  856 
DNFJason Sunukjian   Santa Barbara, CADNF 226588  812 VELO PRO

Men - BG - Master - 35-99

 Place Points NameCity, StateTime USAC #BibTeam
1HARRY BURR   0:55:45.74  870 
2JIM PALMER   0:56:01.75  832 
3JOE SOLANCHO   1:07:44.76  824 
4SCOTT VLAHOS   1:08:02.79  873 
5STEVE BARTON   1:11:39.44  868 TEAM JAG
6BRAD BARNES   1:13:09.90  877 
7590.00Larry Russell   Chula Vista, CA2:18:04.02 216092  880 INTENSE

Men - BG - Master - 40-44

 Place Points NameCity, StateTime USAC #BibTeam
1540.00Adam Austin   Los Angeles, CA0:47:40.65 251417  906 
2547.14Clinton Campbell   Yucaipa, CA0:49:14.82 271865  849 SHO-AIR
3ABRAHAM MELTZER   0:54:08.40  809 
4BOB LEAMING   0:54:27.01  862 
5PAUL THOMPSON   0:55:34.17  817 
6575.71Vladimir Popovic   La Crescenta, CA1:00:12.64 258143  813 
7AL BARRETT   1:02:54.90  801 
8ANDREW DAY   1:19:30.18  896 
DNFTOM BASA   DNF  883 

Men - BG - Master - 45-49

 Place Points NameCity, StateTime USAC #BibTeam
1540.00Mark Fennell   Goleta, CA0:44:56.51 49691  887 PLATINUM
2MARK OWENS   0:51:14.07  866 RPM
3DAVID JURIST   0:52:24.47  842 
4MIKE RAULS   0:53:28.48  829 SHO-AIR/SO
5560.00Greg Knowles   Santa Barbara, CA0:55:10.98 75518  838 CHICKEN RA
6PATRICK MAGNARELLA   0:55:12.03  836 TEAM PMC
7570.00Mark Thome   Missoula, MT0:58:23.34 173433  820 PMBC/BACKB
8575.00Bradford Brown   Santa Barbara, CA0:59:31.33 245663  850 CHICKEN RA
9BILL LASCURAIN   0:59:41.78  837 
10TONY LEON   0:59:55.95  893 
11TIMOTHY CARPENTER   1:00:59.85  807 SHO-AIR/SO

Men - BG - Master - 50-99

 Place Points NameCity, StateTime USAC #BibTeam
1DALE CARTER   0:53:38.20  847 SHO-AIR/SO
2JON WEDE   0:57:55.69  882 
3KURT WIESE   0:58:26.91  819 
4WILLIAM JARMAN   0:59:47.26  878 
5557.00Jeffrey Harbison   Santa Barbara, CA1:01:22.32 261067  845 VELOPROCYC
6PAUL STUVERUD   1:08:04.84  823 
7REID FERGUSON   1:40:28.22  876 

Men - Pro - Senior

 Place Points NameCity, StateTime USAC #BibTeam
1540.00Manuel Prado   Lake Forest, CA1:52:45.29 217924  27 SHO-AIR
2543.85Jason First   Laguna Beach, CA1:53:06.20 71635  45 SHO-AIR/RO
3547.69Dana Weber   Aliso Viejo, CA1:55:12.69 126922  13 TREK/VW
4551.54Sean Donovan   Foothill Ranch, CA1:55:48.81 186481  128 CYTOMAX/KH
5555.38Charles Jenkins   Ridgecrest, CA1:56:42.34 17736  41 IE BIKES
6559.23Timothy Olson   Chico, CA1:57:42.11 153947  81 TREK VW
7563.08Michael Andres   Durango, CO1:58:32.83 189954  83 TREK VW CA
8566.92Nigel Hill   Mckinleyville, CA1:58:38.37 185136  82 TREK VW WC
9570.77Nate Whitman   Los Angeles, CA2:00:31.45 188470  84 HAMMER NUT
10574.62Michael Lee   Mission Viejo, CA2:00:42.19 42231  66 TREK VW
11578.46Paul Freiwald   Lake Forest, CA2:06:31.36 12367  129 TITUS CYCL
12582.31Steven Kinney   Big Bear Lake, CA2:11:07.91 19216  72 STEVEN K
13586.15Leonardo Sandoval   Clearwater, FL2:12:20.23 107620  146 HELENS/GAR
14590.00Matthew Freeman   Redlands, CA2:17:07.01 172215  130 TM REDLAND
DNFMIGUEL VALADEZ   DNF  122 ZIMMULT

Men - Junior - JR - 1-10

 Place Points NameCity, StateTime USAC #BibTeam
1RENY TAKEDA   1:24:27.89  884 PLATINUM
2JOHN GOMEZ   2:25:20.01  890 PMBC

Men - Junior - JR - 11-12

 Place Points NameCity, StateTime USAC #BibTeam
1Quinten Kirby   San Diego, CA0:59:21.30 215644  867 TM IRONCLA
2Ethan Shuler   Corona, CA1:37:52.18 268148  900 SHO-AIR/SO

Men - Junior - JR - 13-14

 Place Points NameCity, StateTime USAC #BibTeam
1SIDNEY BECK   1:11:51.48  851 SOLID ROCK
2KOLLIN KING   1:12:17.24  894 

Men - Junior - JR - 15-18

 Place Points NameCity, StateTime USAC #BibTeam
1540.00Brandon Droese   Goleta, CA0:48:58.01 221892  806 TIME FACTO
2565.00Eduardo Morillas   Agoura Hills, CA0:57:57.51 259372  810 
3AUSTIN GRADILLAS   1:06:41.29  885 
DNFBrett Stevens   Palm Springs, CADNF 275676  822 

Women - SP - Junior - 15-18

 Place Points NameCity, StateTime USAC #BibTeam
1TIANA ROW   0:57:26.39  524 

Women - SP - Senior - 19-29

 Place Points NameCity, StateTime USAC #BibTeam
1JASMINE SCOTT   1:49:50.47  430 COATES
2AILEA RIMOLDI   2:04:29.49  483 
3JENNIFER STOTHERS   2:24:00.92  521 

Women - SP - Master - 30-39

 Place Points NameCity, StateTime USAC #BibTeam
1Michelle Monroe   Salinas, CA1:44:17.94 203968  479 JOSELYNS
1MEREDITH FORD   1:49:51.62  548 SHO-AIR/SO
DNFJaye Donen   Santa Barbara, CADNF 256040  451 PLATINUM

Women - SP - Master - 40-49

 Place Points NameCity, StateTime USAC #BibTeam
1BARBARA FURLONG   1:59:01.66  535 SHO-AIR/SO
2556.67Jodi Martin   Claremont, CA1:59:13.82 170482  477 COATES
3573.33Ana Odette Castaneda   Riverside, CA2:09:07.41 235785  482 
4JEANNE SCHEETZ   2:12:52.98  428 COATES

Women - EX - Junior - 1-18

 Place Points NameCity, StateTime USAC #BibTeam
1Essence Barton   Thousand Oak, CA1:49:43.77 179924  DEVO/NSO

Women - EX - Senior - 19-29

 Place Points NameCity, StateTime USAC #BibTeam
1533.15Vanessa Humic   Long Beach, CA1:45:33.51 250250  96 BACKBONE
2552.10Lisa Crowe   Redlands, CA1:47:56.44 259708  136 DONS BIKES
3571.05Shelli Stevenson   Billings, MT1:50:56.33 221484  103 TM JOSE OL
4590.00Brooke Warner   Altadena, CA1:54:02.21 243697  166 BICYCLE JO

Women - EX - Master - 30-39

 Place Points NameCity, StateTime USAC #BibTeam
1387.00Tiffany Allmandinger   Goleta, CA1:54:42.56 154173  67 
2488.50Heidi Bowen   Woodland Hills, CA1:56:27.78 190382  52 IDYLLWILD
3590.00Dawn Lyons   Long Beach, CA2:03:22.06 177194  158 BACKBONE A
DNFSTACEY GANNON   DNF  135 PLATINUM P

Women - EX - Master - 40-49

 Place Points NameCity, StateTime USAC #BibTeam
1HEIDI VOLPE   1:42:53.29  132 SHO-AIR/SO
2Caroline Goulard   Aliso Viejo, CA1:54:13.28 203784  44 SHO-AIR/SO

Women - BG - Senior - 19-29

 Place Points NameCity, StateTime USAC #BibTeam
1AMANDA SCHAPER   1:00:26.75  827 PLATINUM

Women - BG - Master - 30-39

 Place Points NameCity, StateTime USAC #BibTeam
1540.00Allison Klenske   Thousand Oaks, CA0:57:54.22 274067  840 
2CARLYN LAMBERT-OROPEZ   1:06:45.03  841 
3PRISCILLA POLICAR   1:12:07.25  831 
4RAYANNE LONG   1:26:33.90  865 

Women - BG - Master - 40-49

 Place Points NameCity, StateTime USAC #BibTeam
1516.67Ronda Warden   Big Bear City, CA1:04:15.96 263279  869 BEAR VALLE
2STEPHANIE RIVERA   1:11:06.40  891 PLATINUM
3553.34Kim Finch   Whittier, CA1:11:10.12 243696  846 
4571.67mariann thomas   Carpinteria, CA1:12:26.86 272954  852 PLATINUM
5ANITA VALENZUELA   1:27:25.21  821 UNATTACHED
DNFSHELLEY GREBNER   DNF  844 SHO-AIR/SO

Women - BG - Master - 50-99

 Place Points NameCity, StateTime USAC #BibTeam
1ANNE-CATHERINE ROCH-LEVECQ   1:12:04.96  828 

Women - Pro - Senior

 Place Points NameCity, StateTime USAC #BibTeam
1540.00Carolyn Popovic   Philadelphia, PA1:30:33.09 139753  28 BEAR VALLE
2550.69Christie Pleiss   Redlands, CA1:34:01.18 186916  CICLE/BV B
3561.38Heather Ranoa   Murrieta, CA1:35:09.85 240134  131 CYCOPATH
4572.07Joy Duerksen   Yucaipa, CA1:42:57.49 218863  102 TM JOSE OL
5582.76Rachel Throop   Costa Mesa, CA1:50:50.74 174132  99 BEAR VALLE

Report missing or incorrect license numbers

Volkswagen
ShimanoSpySierra NevadaBonk BreakerUSACDF
UCI USA Cycling is the official governing body for all disciplines of competitive cycling in the United States. The 501c3, membership-based organization aims both to achieve sustained success in international cycling competition and to grow competitive cycling in America while delivering an exceptional customer experience.
View Children's Online Privacy Protection Policy
US Olympic Committee